sensor_id;sensor_type;location;lat;lon;timestamp;pressure;altitude;pressure_sealevel;temperature;humidity
44734;BME280;30462;52.446;-1.930;2023-04-04T00:00:18;101562.1211;;;;
44734;BME280;30462;52.446;-1.930;2023-04-04T00:01:18;101558.5195;;;;
44734;BME280;30462;52.446;-1.930;2023-04-04T00:02:18;101562.0898;;;;
44734;BME280;30462;52.446;-1.930;2023-04-04T00:03:18;101562.8125;;;;
44734;BME280;30462;52.446;-1.930;2023-04-04T00:04:18;101561.6914;;;;
44734;BME280;30462;52.446;-1.930;2023-04-04T00:05:18;101563.0391;;;;
44734;BME280;30462;52.446;-1.930;2023-04-04T00:06:18;101565.1289;;;;
44734;BME280;30462;52.446;-1.930;2023-04-04T00:07:18;101563.9727;;;;
44734;BME280;30462;52.446;-1.930;2023-04-04T00:08:17;101564.2109;;;;
44734;BME280;30462;52.446;-1.930;2023-04-04T00:09:18;101564;;;;
44734;BME280;30462;52.446;-1.930;2023-04-04T00:10:18;101566.1641;;;;
44734;BME280;30462;52.446;-1.930;2023-04-04T00:11:18;101568.4766;;;;
44734;BME280;30462;52.446;-1.930;2023-04-04T00:12:18;101568.2852;;;;
44734;BME280;30462;52.446;-1.930;2023-04-04T00:13:18;101567.9102;;;;
44734;BME280;30462;52.446;-1.930;2023-04-04T00:14:18;101567.2695;;;;
44734;BME280;30462;52.446;-1.930;2023-04-04T00:15:18;101568.3711;;;;
44734;BME280;30462;52.446;-1.930;2023-04-04T00:16:18;101566.6992;;;;
44734;BME280;30462;52.446;-1.930;2023-04-04T00:17:18;101566.0078;;;;
44734;BME280;30462;52.446;-1.930;2023-04-04T00:18:18;101566.6563;;;;
44734;BME280;30462;52.446;-1.930;2023-04-04T00:19:18;101567.0234;;;;
44734;BME280;30462;52.446;-1.930;2023-04-04T00:20:18;101566.4609;;;;
44734;BME280;30462;52.446;-1.930;2023-04-04T00:21:18;101564.9648;;;;
44734;BME280;30462;52.446;-1.930;2023-04-04T00:22:18;101564.1914;;;;
44734;BME280;30462;52.446;-1.930;2023-04-04T00:23:18;101564.8477;;;;
44734;BME280;30462;52.446;-1.930;2023-04-04T00:24:18;101564.5234;;;;
44734;BME280;30462;52.446;-1.930;2023-04-04T00:25:18;101561.7383;;;;
44734;BME280;30462;52.446;-1.930;2023-04-04T00:26:18;101567.1836;;;;
44734;BME280;30462;52.446;-1.930;2023-04-04T00:27:18;101567.3438;;;;
44734;BME280;30462;52.446;-1.930;2023-04-04T00:28:18;101565.3242;;;;
44734;BME280;30462;52.446;-1.930;2023-04-04T00:29:17;101567.3555;;;;
44734;BME280;30462;52.446;-1.930;2023-04-04T00:30:18;101566.7852;;;;
44734;BME280;30462;52.446;-1.930;2023-04-04T00:31:18;101567.2695;;;;
44734;BME280;30462;52.446;-1.930;2023-04-04T00:32:18;101567.6367;;;;
44734;BME280;30462;52.446;-1.930;2023-04-04T00:33:18;101569.3047;;;;
44734;BME280;30462;52.446;-1.930;2023-04-04T00:34:17;101566.582;;;;
44734;BME280;30462;52.446;-1.930;2023-04-04T00:35:18;101568.207;;;;
44734;BME280;30462;52.446;-1.930;2023-04-04T00:36:18;101566.7891;;;;
44734;BME280;30462;52.446;-1.930;2023-04-04T00:37:18;101567.6055;;;;
44734;BME280;30462;52.446;-1.930;2023-04-04T00:38:18;101566.4688;;;;
44734;BME280;30462;52.446;-1.930;2023-04-04T00:39:18;101562.1289;;;;
44734;BME280;30462;52.446;-1.930;2023-04-04T00:40:18;101562.207;;;;
44734;BME280;30462;52.446;-1.930;2023-04-04T00:41:18;101565.4531;;;;
44734;BME280;30462;52.446;-1.930;2023-04-04T00:42:17;101563.2188;;;;
44734;BME280;30462;52.446;-1.930;2023-04-04T00:43:18;101564.7969;;;;
44734;BME280;30462;52.446;-1.930;2023-04-04T00:44:18;101565.5703;;;;
44734;BME280;30462;52.446;-1.930;2023-04-04T00:45:18;101561.918;;;;
44734;BME280;30462;52.446;-1.930;2023-04-04T00:46:18;101562.5703;;;;
44734;BME280;30462;52.446;-1.930;2023-04-04T00:47:18;101564.5586;;;;
44734;BME280;30462;52.446;-1.930;2023-04-04T00:48:19;101565.7344;;;;
44734;BME280;30462;52.446;-1.930;2023-04-04T00:49:17;101563.2539;;;;
44734;BME280;30462;52.446;-1.930;2023-04-04T00:50:18;101564.7891;;;;
44734;BME280;30462;52.446;-1.930;2023-04-04T00:51:18;101562.5938;;;;
44734;BME280;30462;52.446;-1.930;2023-04-04T00:52:18;101562.0664;;;;
44734;BME280;30462;52.446;-1.930;2023-04-04T00:53:18;101558.8203;;;;
44734;BME280;30462;52.446;-1.930;2023-04-04T00:54:18;101561.6992;;;;
44734;BME280;30462;52.446;-1.930;2023-04-04T00:55:18;101561.6953;;;;
44734;BME280;30462;52.446;-1.930;2023-04-04T00:56:18;101561.4492;;;;
44734;BME280;30462;52.446;-1.930;2023-04-04T00:57:18;101561.2813;;;;
44734;BME280;30462;52.446;-1.930;2023-04-04T00:58:18;101561;;;;
44734;BME280;30462;52.446;-1.930;2023-04-04T00:59:18;101561.1641;;;;
44734;BME280;30462;52.446;-1.930;2023-04-04T01:00:18;101557.9453;;;;
44734;BME280;30462;52.446;-1.930;2023-04-04T01:01:18;101560.0586;;;;
44734;BME280;30462;52.446;-1.930;2023-04-04T01:02:18;101557.6875;;;;
44734;BME280;30462;52.446;-1.930;2023-04-04T01:03:18;101554.9219;;;;
44734;BME280;30462;52.446;-1.930;2023-04-04T01:04:18;101557;;;;
44734;BME280;30462;52.446;-1.930;2023-04-04T01:05:18;101555.457;;;;
44734;BME280;30462;52.446;-1.930;2023-04-04T01:06:18;101553.9961;;;;
44734;BME280;30462;52.446;-1.930;2023-04-04T01:07:18;101547.3789;;;;
44734;BME280;30462;52.446;-1.930;2023-04-04T01:08:19;101544.7656;;;;
44734;BME280;30462;52.446;-1.930;2023-04-04T01:09:18;101545.2773;;;;
44734;BME280;30462;52.446;-1.930;2023-04-04T01:10:18;101535.6133;;;;
44734;BME280;30462;52.446;-1.930;2023-04-04T01:11:18;101530.9258;;;;
44734;BME280;30462;52.446;-1.930;2023-04-04T01:12:18;101526.8281;;;;
44734;BME280;30462;52.446;-1.930;2023-04-04T01:13:18;101525.5938;;;;
44734;BME280;30462;52.446;-1.930;2023-04-04T01:14:18;101525.0273;;;;
44734;BME280;30462;52.446;-1.930;2023-04-04T01:15:18;101523.8828;;;;
44734;BME280;30462;52.446;-1.930;2023-04-04T01:16:18;101521.0117;;;;
44734;BME280;30462;52.446;-1.930;2023-04-04T01:17:18;101521.4141;;;;
44734;BME280;30462;52.446;-1.930;2023-04-04T01:18:19;101519.5039;;;;
44734;BME280;30462;52.446;-1.930;2023-04-04T01:19:20;101522.4375;;;;
44734;BME280;30462;52.446;-1.930;2023-04-04T01:20:19;101520.3789;;;;
44734;BME280;30462;52.446;-1.930;2023-04-04T01:21:17;101524.2344;;;;
44734;BME280;30462;52.446;-1.930;2023-04-04T01:22:18;101519.9023;;;;
44734;BME280;30462;52.446;-1.930;2023-04-04T01:23:18;101522.6719;;;;
44734;BME280;30462;52.446;-1.930;2023-04-04T01:24:18;101522.2305;;;;
44734;BME280;30462;52.446;-1.930;2023-04-04T01:25:18;101521.9453;;;;
44734;BME280;30462;52.446;-1.930;2023-04-04T01:26:20;101520.8516;;;;
44734;BME280;30462;52.446;-1.930;2023-04-04T01:27:18;101523.3359;;;;
44734;BME280;30462;52.446;-1.930;2023-04-04T01:28:18;101519.5625;;;;
44734;BME280;30462;52.446;-1.930;2023-04-04T01:29:18;101518.2266;;;;
44734;BME280;30462;52.446;-1.930;2023-04-04T01:30:18;101517.5352;;;;
44734;BME280;30462;52.446;-1.930;2023-04-04T01:31:20;101519.5234;;;;
44734;BME280;30462;52.446;-1.930;2023-04-04T01:32:19;101518.832;;;;
44734;BME280;30462;52.446;-1.930;2023-04-04T01:33:21;101521.4688;;;;
44734;BME280;30462;52.446;-1.930;2023-04-04T01:34:22;101516.3164;;;;
44734;BME280;30462;52.446;-1.930;2023-04-04T01:35:20;101518.0195;;;;
44734;BME280;30462;52.446;-1.930;2023-04-04T01:36:21;101516.4727;;;;
44734;BME280;30462;52.446;-1.930;2023-04-04T01:37:20;101512.6484;;;;
44734;BME280;30462;52.446;-1.930;2023-04-04T01:38:20;101514.6758;;;;
44734;BME280;30462;52.446;-1.930;2023-04-04T01:39:21;101511.0586;;;;
44734;BME280;30462;52.446;-1.930;2023-04-04T01:40:19;101508.5273;;;;
44734;BME280;30462;52.446;-1.930;2023-04-04T01:41:18;101503.9102;;;;
44734;BME280;30462;52.446;-1.930;2023-04-04T01:42:18;101505.7305;;;;
44734;BME280;30462;52.446;-1.930;2023-04-04T01:43:19;101503.7813;;;;
44734;BME280;30462;52.446;-1.930;2023-04-04T01:44:18;101504.9883;;;;
44734;BME280;30462;52.446;-1.930;2023-04-04T01:45:19;101504.7891;;;;
44734;BME280;30462;52.446;-1.930;2023-04-04T01:46:19;101508.5156;;;;
44734;BME280;30462;52.446;-1.930;2023-04-04T01:47:18;101504.3164;;;;
44734;BME280;30462;52.446;-1.930;2023-04-04T01:48:18;101503.2813;;;;
44734;BME280;30462;52.446;-1.930;2023-04-04T01:49:18;101502.5313;;;;
44734;BME280;30462;52.446;-1.930;2023-04-04T01:50:18;101501.6758;;;;
44734;BME280;30462;52.446;-1.930;2023-04-04T01:51:18;101497.3359;;;;
44734;BME280;30462;52.446;-1.930;2023-04-04T01:52:18;101495.8945;;;;
44734;BME280;30462;52.446;-1.930;2023-04-04T01:53:18;101492.2227;;;;
44734;BME280;30462;52.446;-1.930;2023-04-04T01:54:18;101493.3594;;;;
44734;BME280;30462;52.446;-1.930;2023-04-04T01:55:18;101495.6055;;;;
44734;BME280;30462;52.446;-1.930;2023-04-04T01:56:18;101502.5508;;;;
44734;BME280;30462;52.446;-1.930;2023-04-04T01:57:18;101497.75;;;;
44734;BME280;30462;52.446;-1.930;2023-04-04T01:58:18;101500.6992;;;;
44734;BME280;30462;52.446;-1.930;2023-04-04T01:59:18;101501.3945;;;;
44734;BME280;30462;52.446;-1.930;2023-04-04T02:00:18;101497.7695;;;;
44734;BME280;30462;52.446;-1.930;2023-04-04T02:01:18;101500.7461;;;;
44734;BME280;30462;52.446;-1.930;2023-04-04T02:02:18;101499.0156;;;;
44734;BME280;30462;52.446;-1.930;2023-04-04T02:03:18;101497.3945;;;;
44734;BME280;30462;52.446;-1.930;2023-04-04T02:04:18;101498.4141;;;;
44734;BME280;30462;52.446;-1.930;2023-04-04T02:05:18;101499.1367;;;;
44734;BME280;30462;52.446;-1.930;2023-04-04T02:06:18;101499.6563;;;;
44734;BME280;30462;52.446;-1.930;2023-04-04T02:07:18;101501.1055;;;;
44734;BME280;30462;52.446;-1.930;2023-04-04T02:08:18;101496.4531;;;;
44734;BME280;30462;52.446;-1.930;2023-04-04T02:09:18;101499.6367;;;;
44734;BME280;30462;52.446;-1.930;2023-04-04T02:10:18;101499.3711;;;;
44734;BME280;30462;52.446;-1.930;2023-04-04T02:11:18;101493.9531;;;;
44734;BME280;30462;52.446;-1.930;2023-04-04T02:12:18;101494.5273;;;;
44734;BME280;30462;52.446;-1.930;2023-04-04T02:13:18;101494.7266;;;;
44734;BME280;30462;52.446;-1.930;2023-04-04T02:14:18;101492.6484;;;;
44734;BME280;30462;52.446;-1.930;2023-04-04T02:15:18;101488.8398;;;;
44734;BME280;30462;52.446;-1.930;2023-04-04T02:16:18;101488.3086;;;;
44734;BME280;30462;52.446;-1.930;2023-04-04T02:17:18;101487.3359;;;;
44734;BME280;30462;52.446;-1.930;2023-04-04T02:18:18;101485.7109;;;;
44734;BME280;30462;52.446;-1.930;2023-04-04T02:19:18;101484.8633;;;;
44734;BME280;30462;52.446;-1.930;2023-04-04T02:20:18;101486.1836;;;;
44734;BME280;30462;52.446;-1.930;2023-04-04T02:21:18;101484.5898;;;;
44734;BME280;30462;52.446;-1.930;2023-04-04T02:22:18;101484.3906;;;;
44734;BME280;30462;52.446;-1.930;2023-04-04T02:23:18;101480.8633;;;;
44734;BME280;30462;52.446;-1.930;2023-04-04T02:24:18;101480.4531;;;;
44734;BME280;30462;52.446;-1.930;2023-04-04T02:25:18;101482.2266;;;;
44734;BME280;30462;52.446;-1.930;2023-04-04T02:26:18;101476.5039;;;;
44734;BME280;30462;52.446;-1.930;2023-04-04T02:27:18;101477.0156;;;;
44734;BME280;30462;52.446;-1.930;2023-04-04T02:28:18;101474.7852;;;;
44734;BME280;30462;52.446;-1.930;2023-04-04T02:29:18;101468.9688;;;;
44734;BME280;30462;52.446;-1.930;2023-04-04T02:30:18;101469.9258;;;;
44734;BME280;30462;52.446;-1.930;2023-04-04T02:31:18;101467.4609;;;;
44734;BME280;30462;52.446;-1.930;2023-04-04T02:32:18;101469.0156;;;;
44734;BME280;30462;52.446;-1.930;2023-04-04T02:33:18;101472.2656;;;;
44734;BME280;30462;52.446;-1.930;2023-04-04T02:34:18;101465.8164;;;;
44734;BME280;30462;52.446;-1.930;2023-04-04T02:35:18;101470.8633;;;;
44734;BME280;30462;52.446;-1.930;2023-04-04T02:36:17;101471.6016;;;;
44734;BME280;30462;52.446;-1.930;2023-04-04T02:37:18;101469.8711;;;;
44734;BME280;30462;52.446;-1.930;2023-04-04T02:38:18;101463.8125;;;;
44734;BME280;30462;52.446;-1.930;2023-04-04T02:39:18;101468.0156;;;;
44734;BME280;30462;52.446;-1.930;2023-04-04T02:40:18;101467.8633;;;;
44734;BME280;30462;52.446;-1.930;2023-04-04T02:41:18;101467.5859;;;;
44734;BME280;30462;52.446;-1.930;2023-04-04T02:42:18;101464.5898;;;;
44734;BME280;30462;52.446;-1.930;2023-04-04T02:43:18;101463.2383;;;;
44734;BME280;30462;52.446;-1.930;2023-04-04T02:44:18;101462.7539;;;;
44734;BME280;30462;52.446;-1.930;2023-04-04T02:45:18;101463.1055;;;;
44734;BME280;30462;52.446;-1.930;2023-04-04T02:46:18;101458.9297;;;;
44734;BME280;30462;52.446;-1.930;2023-04-04T02:47:18;101459.5781;;;;
44734;BME280;30462;52.446;-1.930;2023-04-04T02:48:17;101460.8398;;;;
44734;BME280;30462;52.446;-1.930;2023-04-04T02:49:18;101459.2383;;;;
44734;BME280;30462;52.446;-1.930;2023-04-04T02:50:18;101459.1484;;;;
44734;BME280;30462;52.446;-1.930;2023-04-04T02:51:18;101456.7031;;;;
44734;BME280;30462;52.446;-1.930;2023-04-04T02:52:19;101455.8008;;;;
44734;BME280;30462;52.446;-1.930;2023-04-04T02:53:18;101455.6836;;;;
44734;BME280;30462;52.446;-1.930;2023-04-04T02:54:18;101452.1875;;;;
44734;BME280;30462;52.446;-1.930;2023-04-04T02:55:18;101453.2422;;;;
44734;BME280;30462;52.446;-1.930;2023-04-04T02:56:18;101451.8125;;;;
44734;BME280;30462;52.446;-1.930;2023-04-04T02:57:18;101449.7539;;;;
44734;BME280;30462;52.446;-1.930;2023-04-04T02:58:19;101450.1914;;;;
44734;BME280;30462;52.446;-1.930;2023-04-04T02:59:18;101444.668;;;;
44734;BME280;30462;52.446;-1.930;2023-04-04T03:00:18;101443.082;;;;
44734;BME280;30462;52.446;-1.930;2023-04-04T03:01:18;101442.0703;;;;
44734;BME280;30462;52.446;-1.930;2023-04-04T03:02:18;101443.8164;;;;
44734;BME280;30462;52.446;-1.930;2023-04-04T03:03:18;101442.2539;;;;
44734;BME280;30462;52.446;-1.930;2023-04-04T03:04:18;101445.1406;;;;
44734;BME280;30462;52.446;-1.930;2023-04-04T03:05:18;101445.168;;;;
44734;BME280;30462;52.446;-1.930;2023-04-04T03:06:18;101442.8516;;;;
44734;BME280;30462;52.446;-1.930;2023-04-04T03:07:18;101439.8242;;;;
44734;BME280;30462;52.446;-1.930;2023-04-04T03:08:18;101440.5195;;;;
44734;BME280;30462;52.446;-1.930;2023-04-04T03:09:18;101439.7344;;;;
44734;BME280;30462;52.446;-1.930;2023-04-04T03:10:18;101440.8047;;;;
44734;BME280;30462;52.446;-1.930;2023-04-04T03:11:18;101440.832;;;;
44734;BME280;30462;52.446;-1.930;2023-04-04T03:12:18;101439.1055;;;;
44734;BME280;30462;52.446;-1.930;2023-04-04T03:13:18;101436.8203;;;;
44734;BME280;30462;52.446;-1.930;2023-04-04T03:14:18;101435.3438;;;;
44734;BME280;30462;52.446;-1.930;2023-04-04T03:15:18;101435.5586;;;;
44734;BME280;30462;52.446;-1.930;2023-04-04T03:16:18;101435.9023;;;;
44734;BME280;30462;52.446;-1.930;2023-04-04T03:17:18;101435.7266;;;;
44734;BME280;30462;52.446;-1.930;2023-04-04T03:18:18;101435.8828;;;;
44734;BME280;30462;52.446;-1.930;2023-04-04T03:19:18;101435.1875;;;;
44734;BME280;30462;52.446;-1.930;2023-04-04T03:20:17;101433.625;;;;
44734;BME280;30462;52.446;-1.930;2023-04-04T03:21:18;101431.4883;;;;
44734;BME280;30462;52.446;-1.930;2023-04-04T03:22:18;101431.6016;;;;
44734;BME280;30462;52.446;-1.930;2023-04-04T03:23:18;101428.5586;;;;
44734;BME280;30462;52.446;-1.930;2023-04-04T03:24:18;101428.7031;;;;
44734;BME280;30462;52.446;-1.930;2023-04-04T03:25:18;101426.6484;;;;
44734;BME280;30462;52.446;-1.930;2023-04-04T03:26:18;101425.5469;;;;
44734;BME280;30462;52.446;-1.930;2023-04-04T03:27:18;101421.7656;;;;
44734;BME280;30462;52.446;-1.930;2023-04-04T03:28:18;101425.5273;;;;
44734;BME280;30462;52.446;-1.930;2023-04-04T03:29:18;101424.793;;;;
44734;BME280;30462;52.446;-1.930;2023-04-04T03:30:18;101421.0547;;;;
44734;BME280;30462;52.446;-1.930;2023-04-04T03:31:18;101417.6719;;;;
44734;BME280;30462;52.446;-1.930;2023-04-04T03:32:18;101418.0742;;;;
44734;BME280;30462;52.446;-1.930;2023-04-04T03:33:18;101422.3594;;;;
44734;BME280;30462;52.446;-1.930;2023-04-04T03:34:18;101422.7188;;;;
44734;BME280;30462;52.446;-1.930;2023-04-04T03:35:18;101418.6836;;;;
44734;BME280;30462;52.446;-1.930;2023-04-04T03:36:18;101423.2695;;;;
44734;BME280;30462;52.446;-1.930;2023-04-04T03:37:18;101421.7031;;;;
44734;BME280;30462;52.446;-1.930;2023-04-04T03:38:18;101419.8242;;;;
44734;BME280;30462;52.446;-1.930;2023-04-04T03:39:18;101419.1797;;;;
44734;BME280;30462;52.446;-1.930;2023-04-04T03:40:18;101421.8281;;;;
44734;BME280;30462;52.446;-1.930;2023-04-04T03:41:18;101421.793;;;;
44734;BME280;30462;52.446;-1.930;2023-04-04T03:42:18;101418.9141;;;;
44734;BME280;30462;52.446;-1.930;2023-04-04T03:43:18;101414.9297;;;;
44734;BME280;30462;52.446;-1.930;2023-04-04T03:44:18;101415.0352;;;;
44734;BME280;30462;52.446;-1.930;2023-04-04T03:45:18;101413.4258;;;;
44734;BME280;30462;52.446;-1.930;2023-04-04T03:46:18;101415.8242;;;;
44734;BME280;30462;52.446;-1.930;2023-04-04T03:47:18;101415.7539;;;;
44734;BME280;30462;52.446;-1.930;2023-04-04T03:48:18;101414.1172;;;;
44734;BME280;30462;52.446;-1.930;2023-04-04T03:49:18;101419.0117;;;;
44734;BME280;30462;52.446;-1.930;2023-04-04T03:50:18;101419.6797;;;;
44734;BME280;30462;52.446;-1.930;2023-04-04T03:52:17;101415.8359;;;;
44734;BME280;30462;52.446;-1.930;2023-04-04T03:53:18;101417.0977;;;;
44734;BME280;30462;52.446;-1.930;2023-04-04T03:54:18;101415.2227;;;;
44734;BME280;30462;52.446;-1.930;2023-04-04T03:55:18;101411.4609;;;;
44734;BME280;30462;52.446;-1.930;2023-04-04T03:56:18;101414.6914;;;;
44734;BME280;30462;52.446;-1.930;2023-04-04T03:57:18;101418.7109;;;;
44734;BME280;30462;52.446;-1.930;2023-04-04T03:58:18;101416.0625;;;;
44734;BME280;30462;52.446;-1.930;2023-04-04T03:59:18;101419.0547;;;;
44734;BME280;30462;52.446;-1.930;2023-04-04T04:00:18;101416.9102;;;;
44734;BME280;30462;52.446;-1.930;2023-04-04T04:01:18;101420.4531;;;;
44734;BME280;30462;52.446;-1.930;2023-04-04T04:02:18;101417.6133;;;;
44734;BME280;30462;52.446;-1.930;2023-04-04T04:03:18;101418.4844;;;;
44734;BME280;30462;52.446;-1.930;2023-04-04T04:04:18;101414.1172;;;;
44734;BME280;30462;52.446;-1.930;2023-04-04T04:05:18;101412.2734;;;;
44734;BME280;30462;52.446;-1.930;2023-04-04T04:06:18;101413.9922;;;;
44734;BME280;30462;52.446;-1.930;2023-04-04T04:07:18;101412.5664;;;;
44734;BME280;30462;52.446;-1.930;2023-04-04T04:08:18;101407.7188;;;;
44734;BME280;30462;52.446;-1.930;2023-04-04T04:09:18;101409.9063;;;;
44734;BME280;30462;52.446;-1.930;2023-04-04T04:10:18;101407.6797;;;;
44734;BME280;30462;52.446;-1.930;2023-04-04T04:11:18;101407.2148;;;;
44734;BME280;30462;52.446;-1.930;2023-04-04T04:12:18;101407.7188;;;;
44734;BME280;30462;52.446;-1.930;2023-04-04T04:13:18;101405.3789;;;;
44734;BME280;30462;52.446;-1.930;2023-04-04T04:14:18;101407.0156;;;;
44734;BME280;30462;52.446;-1.930;2023-04-04T04:15:18;101404.5273;;;;
44734;BME280;30462;52.446;-1.930;2023-04-04T04:16:18;101404.3047;;;;
44734;BME280;30462;52.446;-1.930;2023-04-04T04:17:18;101406.4141;;;;
44734;BME280;30462;52.446;-1.930;2023-04-04T04:18:18;101405.5;;;;
44734;BME280;30462;52.446;-1.930;2023-04-04T04:19:18;101405.625;;;;
44734;BME280;30462;52.446;-1.930;2023-04-04T04:20:18;101405.8477;;;;
44734;BME280;30462;52.446;-1.930;2023-04-04T04:21:18;101407.0156;;;;
44734;BME280;30462;52.446;-1.930;2023-04-04T04:22:18;101407.25;;;;
44734;BME280;30462;52.446;-1.930;2023-04-04T04:23:18;101405.9531;;;;
44734;BME280;30462;52.446;-1.930;2023-04-04T04:24:18;101405.9141;;;;
44734;BME280;30462;52.446;-1.930;2023-04-04T04:25:18;101405.6836;;;;
44734;BME280;30462;52.446;-1.930;2023-04-04T04:26:18;101407.4727;;;;
44734;BME280;30462;52.446;-1.930;2023-04-04T04:27:18;101407.6484;;;;
44734;BME280;30462;52.446;-1.930;2023-04-04T04:28:18;101408.7813;;;;
44734;BME280;30462;52.446;-1.930;2023-04-04T04:29:18;101408.0469;;;;
44734;BME280;30462;52.446;-1.930;2023-04-04T04:30:18;101403.9844;;;;
44734;BME280;30462;52.446;-1.930;2023-04-04T04:31:18;101399.875;;;;
44734;BME280;30462;52.446;-1.930;2023-04-04T04:32:17;101396.8516;;;;
44734;BME280;30462;52.446;-1.930;2023-04-04T04:33:18;101395.5273;;;;
44734;BME280;30462;52.446;-1.930;2023-04-04T04:34:18;101398.793;;;;
44734;BME280;30462;52.446;-1.930;2023-04-04T04:35:18;101396.1914;;;;
44734;BME280;30462;52.446;-1.930;2023-04-04T04:36:18;101399.4297;;;;
44734;BME280;30462;52.446;-1.930;2023-04-04T04:37:18;101396.5977;;;;
44734;BME280;30462;52.446;-1.930;2023-04-04T04:38:18;101399.3594;;;;
44734;BME280;30462;52.446;-1.930;2023-04-04T04:39:18;101395.457;;;;
44734;BME280;30462;52.446;-1.930;2023-04-04T04:40:18;101397.7227;;;;
44734;BME280;30462;52.446;-1.930;2023-04-04T04:41:17;101398.4336;;;;
44734;BME280;30462;52.446;-1.930;2023-04-04T04:42:18;101399.0313;;;;
44734;BME280;30462;52.446;-1.930;2023-04-04T04:43:18;101400.9688;;;;
44734;BME280;30462;52.446;-1.930;2023-04-04T04:44:18;101397.207;;;;
44734;BME280;30462;52.446;-1.930;2023-04-04T04:45:18;101403.7148;;;;
44734;BME280;30462;52.446;-1.930;2023-04-04T04:46:18;101402.8281;;;;
44734;BME280;30462;52.446;-1.930;2023-04-04T04:47:18;101406.1055;;;;
44734;BME280;30462;52.446;-1.930;2023-04-04T04:48:18;101405.7695;;;;
44734;BME280;30462;52.446;-1.930;2023-04-04T04:49:18;101403.2656;;;;
44734;BME280;30462;52.446;-1.930;2023-04-04T04:50:18;101405.0859;;;;
44734;BME280;30462;52.446;-1.930;2023-04-04T04:51:18;101403.1055;;;;
44734;BME280;30462;52.446;-1.930;2023-04-04T04:52:18;101404.7695;;;;
44734;BME280;30462;52.446;-1.930;2023-04-04T04:53:17;101402.0469;;;;
44734;BME280;30462;52.446;-1.930;2023-04-04T04:54:18;101401.8945;;;;
44734;BME280;30462;52.446;-1.930;2023-04-04T04:55:18;101399.4336;;;;
44734;BME280;30462;52.446;-1.930;2023-04-04T04:56:18;101397.5469;;;;
44734;BME280;30462;52.446;-1.930;2023-04-04T04:57:18;101396.0391;;;;
44734;BME280;30462;52.446;-1.930;2023-04-04T04:58:18;101400.9609;;;;
44734;BME280;30462;52.446;-1.930;2023-04-04T04:59:18;101402.0781;;;;
44734;BME280;30462;52.446;-1.930;2023-04-04T05:00:19;101399.1328;;;;
44734;BME280;30462;52.446;-1.930;2023-04-04T05:01:18;101400.9688;;;;
44734;BME280;30462;52.446;-1.930;2023-04-04T05:02:18;101398.6641;;;;
44734;BME280;30462;52.446;-1.930;2023-04-04T05:03:18;101402.0234;;;;
44734;BME280;30462;52.446;-1.930;2023-04-04T05:04:18;101402.168;;;;
44734;BME280;30462;52.446;-1.930;2023-04-04T05:05:18;101407.5156;;;;
44734;BME280;30462;52.446;-1.930;2023-04-04T05:06:18;101410.9805;;;;
44734;BME280;30462;52.446;-1.930;2023-04-04T05:07:17;101408.5898;;;;
44734;BME280;30462;52.446;-1.930;2023-04-04T05:08:17;101406.9453;;;;
44734;BME280;30462;52.446;-1.930;2023-04-04T05:09:18;101409.5547;;;;
44734;BME280;30462;52.446;-1.930;2023-04-04T05:10:18;101405.3203;;;;
44734;BME280;30462;52.446;-1.930;2023-04-04T05:11:18;101403.9648;;;;
44734;BME280;30462;52.446;-1.930;2023-04-04T05:12:18;101402.1289;;;;
44734;BME280;30462;52.446;-1.930;2023-04-04T05:13:18;101401.4805;;;;
44734;BME280;30462;52.446;-1.930;2023-04-04T05:14:18;101400.5469;;;;
44734;BME280;30462;52.446;-1.930;2023-04-04T05:15:18;101404.6797;;;;
44734;BME280;30462;52.446;-1.930;2023-04-04T05:16:18;101405.1914;;;;
44734;BME280;30462;52.446;-1.930;2023-04-04T05:17:18;101398.582;;;;
44734;BME280;30462;52.446;-1.930;2023-04-04T05:18:18;101404.0977;;;;
44734;BME280;30462;52.446;-1.930;2023-04-04T05:19:18;101402.3203;;;;
44734;BME280;30462;52.446;-1.930;2023-04-04T05:20:18;101402.6289;;;;
44734;BME280;30462;52.446;-1.930;2023-04-04T05:21:18;101402.2383;;;;
44734;BME280;30462;52.446;-1.930;2023-04-04T05:22:18;101404.3086;;;;
44734;BME280;30462;52.446;-1.930;2023-04-04T05:23:18;101404.9688;;;;
44734;BME280;30462;52.446;-1.930;2023-04-04T05:24:18;101406.9844;;;;
44734;BME280;30462;52.446;-1.930;2023-04-04T05:25:17;101405.625;;;;
44734;BME280;30462;52.446;-1.930;2023-04-04T05:26:18;101406.2148;;;;
44734;BME280;30462;52.446;-1.930;2023-04-04T05:27:17;101408.6953;;;;
44734;BME280;30462;52.446;-1.930;2023-04-04T05:28:18;101410.6406;;;;
44734;BME280;30462;52.446;-1.930;2023-04-04T05:29:18;101411.9219;;;;
44734;BME280;30462;52.446;-1.930;2023-04-04T05:30:18;101414.8164;;;;
44734;BME280;30462;52.446;-1.930;2023-04-04T05:31:18;101418.4023;;;;
44734;BME280;30462;52.446;-1.930;2023-04-04T05:32:18;101421.4766;;;;
44734;BME280;30462;52.446;-1.930;2023-04-04T05:33:18;101419.918;;;;
44734;BME280;30462;52.446;-1.930;2023-04-04T05:34:18;101419.8008;;;;
44734;BME280;30462;52.446;-1.930;2023-04-04T05:35:18;101417.7617;;;;
44734;BME280;30462;52.446;-1.930;2023-04-04T05:36:18;101423.4844;;;;
44734;BME280;30462;52.446;-1.930;2023-04-04T05:37:18;101421.1133;;;;
44734;BME280;30462;52.446;-1.930;2023-04-04T05:38:18;101422.5781;;;;
44734;BME280;30462;52.446;-1.930;2023-04-04T05:39:18;101427.582;;;;
44734;BME280;30462;52.446;-1.930;2023-04-04T05:40:18;101426.3047;;;;
44734;BME280;30462;52.446;-1.930;2023-04-04T05:41:18;101423.0508;;;;
44734;BME280;30462;52.446;-1.930;2023-04-04T05:42:18;101424.5273;;;;
44734;BME280;30462;52.446;-1.930;2023-04-04T05:43:18;101425.9648;;;;
44734;BME280;30462;52.446;-1.930;2023-04-04T05:44:18;101423.8984;;;;
44734;BME280;30462;52.446;-1.930;2023-04-04T05:45:18;101422.8359;;;;
44734;BME280;30462;52.446;-1.930;2023-04-04T05:46:18;101425.5352;;;;